Time;durP1;ratioP1;P1;durP2;ratioP2;P2;SDS_P1;SDS_P2;PMS_P1;PMS_P2;Temp;Humidity;BMP_temperature;BMP_pressure;BME280_temperature;BME280_humidity;BME280_pressure;Samples;Min_cycle;Max_cycle;Signal;HPM_P1;HPM_P2
2022/11/18 00:02:05;;;;;;;2.00;1.67;;;7.80;99.90;;;;;;5022693;28;20278;-60
2022/11/18 00:04:30;;;;;;;1.60;1.50;;;7.80;99.90;;;;;;5026308;28;20176;-60
2022/11/18 00:06:56;;;;;;;1.80;1.60;;;7.80;99.90;;;;;;5022844;28;20184;-61
2022/11/18 00:09:22;;;;;;;1.90;1.80;;;7.80;99.90;;;;;;5021683;28;20214;-62
2022/11/18 00:14:31;;;;;;;1.50;1.40;;;7.80;99.90;;;;;;5023775;28;20544;-60
2022/11/18 00:17:00;;;;;;;1.67;1.30;;;7.80;99.90;;;;;;5027045;28;20466;-60
2022/11/18 00:19:33;;;;;;;1.30;1.20;;;7.80;99.90;;;;;;5025387;28;20203;-59
2022/11/18 00:22:00;;;;;;;1.20;1.10;;;7.80;99.90;;;;;;5019584;28;20896;-60
2022/11/18 00:24:26;;;;;;;1.30;1.20;;;7.80;99.90;;;;;;5027629;28;20885;-59
2022/11/18 00:26:52;;;;;;;1.43;0.90;;;7.80;99.90;;;;;;5024616;28;20453;-59
2022/11/18 00:29:19;;;;;;;1.53;1.30;;;7.80;99.90;;;;;;5025887;28;20419;-60
2022/11/18 00:31:45;;;;;;;1.40;1.30;;;7.80;99.90;;;;;;5001355;28;20829;-62
2022/11/18 00:34:13;;;;;;;1.97;1.40;;;7.80;99.90;;;;;;5028303;28;20525;-60
2022/11/18 00:36:40;;;;;;;1.40;1.30;;;7.80;99.90;;;;;;5020662;28;20195;-61
2022/11/18 00:39:06;;;;;;;2.30;1.67;;;7.80;99.90;;;;;;5026730;28;20504;-59
2022/11/18 00:44:23;;;;;;;1.30;1.20;;;7.80;99.90;;;;;;4995974;28;20188;-61
2022/11/18 00:46:48;;;;;;;1.87;1.77;;;7.80;99.90;;;;;;5020586;28;20466;-60
2022/11/18 00:49:14;;;;;;;2.57;1.57;;;7.80;99.90;;;;;;5027230;28;20186;-61
2022/11/18 00:51:40;;;;;;;2.03;1.77;;;7.80;99.90;;;;;;5022658;28;20231;-60
2022/11/18 00:54:05;;;;;;;5.33;1.63;;;7.80;99.90;;;;;;5020909;28;20173;-61
2022/11/18 00:56:31;;;;;;;2.23;1.40;;;7.80;99.90;;;;;;5023365;28;20318;-59
2022/11/18 00:58:57;;;;;;;1.67;1.30;;;7.80;99.90;;;;;;5009620;28;20263;-59
2022/11/18 01:01:22;;;;;;;2.10;1.30;;;7.80;99.90;;;;;;5022364;28;20176;-59
2022/11/18 01:03:48;;;;;;;1.43;1.33;;;7.80;99.90;;;;;;5023457;28;20176;-60
2022/11/18 01:06:14;;;;;;;2.37;1.50;;;7.80;99.90;;;;;;5024862;28;20233;-60
2022/11/18 01:08:39;;;;;;;1.60;1.33;;;7.80;99.90;;;;;;5025649;28;20310;-62
2022/11/18 01:13:52;;;;;;;1.40;1.30;;;7.80;99.90;;;;;;5024191;28;20214;-59
2022/11/18 01:16:22;;;;;;;1.67;1.57;;;7.80;99.90;;;;;;5024849;28;20513;-59
2022/11/18 01:18:48;;;;;;;1.50;1.40;;;7.80;99.90;;;;;;5024527;28;20453;-60
2022/11/18 01:21:14;;;;;;;1.40;1.30;;;7.90;99.90;;;;;;5019762;28;20439;-60
2022/11/18 01:23:40;;;;;;;1.60;1.50;;;7.80;99.90;;;;;;5024903;28;20257;-60
2022/11/18 01:26:08;;;;;;;1.60;1.50;;;7.90;99.90;;;;;;5008921;28;20553;-61
2022/11/18 01:28:34;;;;;;;2.80;1.60;;;7.90;99.90;;;;;;5024515;28;20346;-61
2022/11/18 01:31:05;;;;;;;1.30;1.20;;;7.80;99.90;;;;;;5023090;28;20529;-60
2022/11/18 01:33:31;;;;;;;1.77;1.33;;;7.80;99.90;;;;;;5026557;28;20171;-60
2022/11/18 01:35:57;;;;;;;1.10;1.10;;;7.80;99.90;;;;;;5025059;28;20473;-61
2022/11/18 01:38:22;;;;;;;9.73;1.20;;;7.80;99.90;;;;;;5021352;28;20799;-60
2022/11/18 01:40:48;;;;;;;1.23;1.00;;;7.80;99.90;;;;;;5020413;28;20207;-60
2022/11/18 01:43:16;;;;;;;1.30;1.20;;;7.80;99.90;;;;;;5025620;28;20517;-59
2022/11/18 01:45:43;;;;;;;1.10;1.10;;;7.80;99.90;;;;;;5023156;28;20208;-60
2022/11/18 01:48:12;;;;;;;3.20;1.23;;;7.80;99.90;;;;;;5018957;28;20750;-61
2022/11/18 01:50:46;;;;;;;1.27;1.27;;;7.80;99.90;;;;;;5021100;28;20530;-59
2022/11/18 01:53:19;;;;;;;1.30;1.20;;;7.80;99.90;;;;;;5008002;28;20466;-61
2022/11/18 01:55:48;;;;;;;1.20;1.10;;;7.80;99.90;;;;;;5005371;28;20450;-61
2022/11/18 01:58:36;;;;;;;1.10;1.10;;;7.80;99.90;;;;;;5021159;28;20553;-59
2022/11/18 02:01:04;;;;;;;4.10;0.90;;;7.80;99.90;;;;;;5024749;28;20536;-60
2022/11/18 02:03:30;;;;;;;1.00;1.00;;;7.80;99.90;;;;;;5024988;28;20529;-60
2022/11/18 02:05:57;;;;;;;0.93;0.93;;;7.80;99.90;;;;;;5023616;28;20462;-61
2022/11/18 02:08:23;;;;;;;0.80;0.80;;;7.80;99.90;;;;;;5022485;28;20434;-58
2022/11/18 02:10:48;;;;;;;0.90;0.90;;;7.80;99.90;;;;;;5021485;28;20437;-60
2022/11/18 02:13:14;;;;;;;1.20;1.00;;;7.80;99.90;;;;;;5023622;28;20207;-60
2022/11/18 02:16:19;;;;;;;1.10;1.10;;;7.80;99.90;;;;;;5005872;28;20219;-59
2022/11/18 02:18:57;;;;;;;1.00;1.00;;;7.80;99.90;;;;;;5010119;28;20175;-60
2022/11/18 02:22:00;;;;;;;1.13;1.03;;;7.80;99.90;;;;;;5022569;28;20715;-60
2022/11/18 02:25:03;;;;;;;1.23;1.13;;;7.80;99.90;;;;;;5026266;28;20411;-59
2022/11/18 02:27:59;;;;;;;1.00;0.90;;;7.80;99.90;;;;;;5019547;28;20441;-59
2022/11/18 02:30:25;;;;;;;0.97;0.80;;;7.80;99.90;;;;;;5023941;28;20518;-60
2022/11/18 02:32:56;;;;;;;1.40;0.97;;;7.80;99.90;;;;;;5007415;28;20521;-60
2022/11/18 02:35:25;;;;;;;2.10;1.17;;;7.80;99.90;;;;;;5025742;28;20729;-60
2022/11/18 02:38:01;;;;;;;1.20;1.10;;;7.80;99.90;;;;;;5021822;28;20558;-61
2022/11/18 02:40:32;;;;;;;1.00;1.00;;;7.80;99.90;;;;;;5022776;28;20446;-60
2022/11/18 02:43:04;;;;;;;1.37;0.93;;;7.80;99.90;;;;;;5007051;28;20435;-60
2022/11/18 02:45:30;;;;;;;1.27;1.10;;;7.80;99.90;;;;;;5024783;28;20449;-60
2022/11/18 02:48:00;;;;;;;1.00;1.00;;;7.70;99.90;;;;;;5014217;28;20434;-60
2022/11/18 02:50:28;;;;;;;0.93;0.93;;;7.70;99.90;;;;;;5025576;28;20264;-60
2022/11/18 02:52:58;;;;;;;1.10;1.00;;;7.70;99.90;;;;;;5021654;28;20434;-59
2022/11/18 02:55:28;;;;;;;1.20;1.10;;;7.70;99.90;;;;;;5020206;28;20878;-59
2022/11/18 02:57:55;;;;;;;1.37;1.10;;;7.70;99.90;;;;;;5022608;28;20549;-59
2022/11/18 03:00:20;;;;;;;1.10;1.00;;;7.70;99.90;;;;;;5022403;28;20512;-59
2022/11/18 03:02:48;;;;;;;1.20;1.10;;;7.70;99.90;;;;;;5016636;28;20587;-59
2022/11/18 03:05:29;;;;;;;0.90;0.90;;;7.70;99.90;;;;;;5026931;28;20200;-61
2022/11/18 03:08:01;;;;;;;1.20;1.00;;;7.70;99.90;;;;;;5024766;28;20448;-61
2022/11/18 03:10:34;;;;;;;1.30;1.20;;;7.70;99.90;;;;;;5027013;28;20525;-60
2022/11/18 03:13:35;;;;;;;1.10;1.10;;;7.70;99.90;;;;;;5009091;28;20529;-60
2022/11/18 03:16:10;;;;;;;1.73;1.00;;;7.70;99.90;;;;;;4971727;28;20486;-60
2022/11/18 03:18:52;;;;;;;2.00;1.37;;;7.70;99.90;;;;;;5025580;28;20434;-60
2022/11/18 03:21:22;;;;;;;6.00;1.20;;;7.70;99.90;;;;;;5021058;28;20995;-61
2022/11/18 03:23:58;;;;;;;2.40;1.20;;;7.70;99.90;;;;;;5010039;28;20458;-60
2022/11/18 03:26:35;;;;;;;2.20;1.20;;;7.70;99.90;;;;;;5026172;28;20470;-60
2022/11/18 03:29:14;;;;;;;1.10;1.00;;;7.70;99.90;;;;;;5008460;28;20618;-59
2022/11/18 03:31:46;;;;;;;0.90;0.90;;;7.80;99.90;;;;;;5026590;28;20504;-60
2022/11/18 03:34:36;;;;;;;1.63;1.00;;;7.70;99.90;;;;;;5025564;28;20442;-60
2022/11/18 03:37:05;;;;;;;0.80;0.80;;;7.70;99.90;;;;;;5008062;28;20470;-59
2022/11/18 03:39:36;;;;;;;1.60;1.10;;;7.70;99.90;;;;;;5006774;28;20788;-61
2022/11/18 03:42:04;;;;;;;1.03;0.93;;;7.70;99.90;;;;;;5029392;28;20430;-60
2022/11/18 03:44:35;;;;;;;1.17;0.90;;;7.70;99.90;;;;;;5008095;28;20423;-59
2022/11/18 03:47:07;;;;;;;0.80;0.77;;;7.60;99.90;;;;;;5028215;28;20488;-60
2022/11/18 03:49:39;;;;;;;0.90;0.90;;;7.60;99.90;;;;;;5011703;28;20430;-61
2022/11/18 03:52:18;;;;;;;0.90;0.90;;;7.60;99.90;;;;;;5025924;28;20430;-59
2022/11/18 03:54:46;;;;;;;0.70;0.70;;;7.60;99.90;;;;;;5023565;28;20468;-60
2022/11/18 03:57:20;;;;;;;1.27;0.70;;;7.60;99.90;;;;;;5026758;28;20466;-60
2022/11/18 04:00:02;;;;;;;0.70;0.70;;;7.50;99.90;;;;;;5026820;28;20430;-60
2022/11/18 04:02:29;;;;;;;1.00;0.90;;;7.50;99.90;;;;;;5019050;28;21017;-60
2022/11/18 04:04:57;;;;;;;0.80;0.80;;;7.50;99.90;;;;;;5001879;28;20473;-60
2022/11/18 04:07:52;;;;;;;0.90;0.90;;;7.50;99.90;;;;;;5024542;28;20431;-59
2022/11/18 04:10:23;;;;;;;2.00;0.80;;;7.40;99.90;;;;;;5016437;28;20442;-58
2022/11/18 04:13:25;;;;;;;0.70;0.70;;;7.40;99.90;;;;;;5023718;28;20495;-60
2022/11/18 04:15:53;;;;;;;0.80;0.80;;;7.40;99.90;;;;;;5025967;28;20465;-58
2022/11/18 04:18:18;;;;;;;0.70;0.70;;;7.30;99.90;;;;;;5011057;28;20453;-58
2022/11/18 04:20:44;;;;;;;1.03;0.93;;;7.30;99.90;;;;;;5024576;28;20913;-59
2022/11/18 04:23:10;;;;;;;0.70;0.70;;;7.20;99.90;;;;;;5005525;28;20650;-58
2022/11/18 04:25:35;;;;;;;0.70;0.70;;;7.20;99.90;;;;;;5024694;28;20210;-58
2022/11/18 04:28:02;;;;;;;0.87;0.87;;;7.20;99.90;;;;;;5009030;28;20184;-59
2022/11/18 04:30:28;;;;;;;0.90;0.90;;;7.10;99.90;;;;;;5024195;28;20175;-59
2022/11/18 04:32:53;;;;;;;0.90;0.90;;;7.10;99.90;;;;;;5026990;28;20540;-58
2022/11/18 04:35:19;;;;;;;1.47;0.87;;;7.10;99.90;;;;;;5026997;28;20466;-59
2022/11/18 04:37:45;;;;;;;4.20;0.80;;;7.00;99.90;;;;;;5028501;28;20207;-60
2022/11/18 04:40:11;;;;;;;0.80;0.80;;;7.00;99.90;;;;;;5027963;28;20172;-58
2022/11/18 04:42:37;;;;;;;0.90;0.90;;;7.00;99.90;;;;;;5025454;28;20183;-59
2022/11/18 04:45:04;;;;;;;4.70;0.80;;;7.00;99.90;;;;;;5009736;28;20454;-59
2022/11/18 04:47:29;;;;;;;1.60;1.50;;;7.00;99.90;;;;;;5024655;28;20198;-59
2022/11/18 04:49:55;;;;;;;0.80;0.80;;;7.00;99.90;;;;;;5027441;28;21005;-60
2022/11/18 04:52:20;;;;;;;0.80;0.80;;;7.00;99.90;;;;;;5024074;28;20184;-59
2022/11/18 04:54:46;;;;;;;0.77;0.77;;;6.90;99.90;;;;;;5019063;28;20792;-59
2022/11/18 04:57:12;;;;;;;0.80;0.80;;;6.90;99.90;;;;;;5019940;28;20810;-59
2022/11/18 04:59:38;;;;;;;0.70;0.70;;;6.90;99.90;;;;;;5018378;28;20638;-58
2022/11/18 05:02:04;;;;;;;0.80;0.80;;;6.90;99.90;;;;;;5015920;28;20430;-58
2022/11/18 05:04:31;;;;;;;0.80;0.80;;;6.90;99.90;;;;;;5011658;28;20864;-58
2022/11/18 05:06:58;;;;;;;1.37;0.90;;;6.90;99.90;;;;;;5012510;28;20185;-59
2022/11/18 05:09:24;;;;;;;0.80;0.80;;;6.90;99.90;;;;;;5016243;28;20443;-60
2022/11/18 05:14:34;;;;;;;1.57;1.47;;;6.80;99.90;;;;;;5016919;28;20196;-59
2022/11/18 05:17:02;;;;;;;1.00;1.00;;;6.80;99.90;;;;;;5022645;28;20945;-59
2022/11/18 05:19:27;;;;;;;1.40;1.30;;;6.80;99.90;;;;;;5011726;28;20195;-59
2022/11/18 05:21:53;;;;;;;1.10;1.00;;;6.80;99.90;;;;;;5016349;28;20438;-58
2022/11/18 05:24:19;;;;;;;1.70;1.60;;;6.70;99.90;;;;;;5019000;28;20266;-58
2022/11/18 05:26:45;;;;;;;1.80;1.70;;;6.70;99.90;;;;;;5019981;28;20450;-59
2022/11/18 05:29:11;;;;;;;1.80;1.70;;;6.70;99.90;;;;;;5011287;28;20190;-59
2022/11/18 05:31:37;;;;;;;1.43;1.13;;;6.70;99.90;;;;;;5022355;28;21701;-58
2022/11/18 05:34:03;;;;;;;1.73;1.63;;;6.70;99.90;;;;;;5020595;28;20943;-58
2022/11/18 05:36:29;;;;;;;1.90;1.80;;;6.60;99.90;;;;;;5019360;28;20491;-59
2022/11/18 05:38:57;;;;;;;2.17;2.00;;;6.60;99.90;;;;;;5018722;28;20188;-57
2022/11/18 05:44:07;;;;;;;3.80;2.70;;;6.60;99.90;;;;;;5009739;28;20509;-58
2022/11/18 05:46:33;;;;;;;4.10;1.70;;;6.50;99.90;;;;;;5018309;28;20454;-58
2022/11/18 05:48:58;;;;;;;2.20;1.20;;;6.50;99.90;;;;;;5025653;28;20184;-59
2022/11/18 05:51:24;;;;;;;1.57;1.10;;;6.60;99.90;;;;;;5007620;28;20195;-57
2022/11/18 05:53:51;;;;;;;1.30;1.20;;;6.60;99.90;;;;;;5018399;28;20669;-56
2022/11/18 05:56:21;;;;;;;1.10;1.00;;;6.60;99.90;;;;;;5020991;28;20591;-58
2022/11/18 05:58:47;;;;;;;1.30;1.20;;;6.60;99.90;;;;;;5056008;22;20795;-55
2022/11/18 06:01:18;;;;;;;1.13;1.00;;;6.60;99.90;;;;;;5061343;28;20459;-56
2022/11/18 06:03:44;;;;;;;1.20;1.10;;;6.60;99.90;;;;;;5055629;28;20182;-56
2022/11/18 06:06:11;;;;;;;2.07;1.10;;;6.60;99.90;;;;;;5062370;28;20498;-54
2022/11/18 06:08:43;;;;;;;2.30;1.10;;;6.50;99.90;;;;;;5046166;28;20448;-53
2022/11/18 06:11:12;;;;;;;1.13;1.10;;;6.60;99.90;;;;;;5064358;28;20474;-53
2022/11/18 06:13:49;;;;;;;1.30;1.20;;;6.50;99.90;;;;;;5060982;28;20523;-55
2022/11/18 06:16:16;;;;;;;2.13;1.90;;;6.50;99.90;;;;;;5063414;28;20593;-56
2022/11/18 06:18:41;;;;;;;2.43;1.50;;;6.50;99.90;;;;;;5066985;28;21151;-55
2022/11/18 06:21:07;;;;;;;1.17;1.07;;;6.50;99.90;;;;;;5064264;28;20428;-56
2022/11/18 06:23:35;;;;;;;5.50;1.93;;;6.50;99.90;;;;;;5045592;28;20178;-59
2022/11/18 06:26:00;;;;;;;4.13;1.70;;;6.50;99.90;;;;;;5062686;28;20182;-58
2022/11/18 06:28:27;;;;;;;2.00;1.73;;;6.50;99.90;;;;;;5070951;28;20859;-56
2022/11/18 06:30:53;;;;;;;3.13;2.60;;;6.60;99.90;;;;;;5062509;28;20175;-57
2022/11/18 06:33:19;;;;;;;6.10;4.53;;;6.50;99.90;;;;;;5067143;28;20437;-56
2022/11/18 06:35:44;;;;;;;4.93;3.40;;;6.50;99.90;;;;;;5057585;28;20205;-58
2022/11/18 06:38:10;;;;;;;2.00;1.90;;;6.50;99.90;;;;;;5060509;28;20202;-56
2022/11/18 06:40:36;;;;;;;2.13;1.70;;;6.60;99.90;;;;;;5060979;28;20186;-61
2022/11/18 06:48:36;;;;;;;2.60;2.20;;;6.60;99.90;;;;;;5033417;28;20448;-55
2022/11/18 06:51:06;;;;;;;2.20;1.70;;;6.50;99.90;;;;;;5070377;28;20474;-56
2022/11/18 06:53:33;;;;;;;2.77;1.97;;;6.50;99.90;;;;;;5065058;28;20182;-56
2022/11/18 06:56:03;;;;;;;3.30;2.10;;;6.50;99.90;;;;;;5067358;28;20436;-55
2022/11/18 06:58:29;;;;;;;2.30;1.43;;;6.50;99.90;;;;;;5068001;28;21056;-56
2022/11/18 07:00:54;;;;;;;1.53;1.40;;;6.50;99.90;;;;;;5072484;28;20431;-56
2022/11/18 07:03:20;;;;;;;1.50;1.40;;;6.50;99.90;;;;;;5067117;28;20642;-56
2022/11/18 07:05:45;;;;;;;5.27;3.37;;;6.50;99.90;;;;;;5067221;28;20686;-55
2022/11/18 07:08:11;;;;;;;2.87;1.83;;;6.60;99.90;;;;;;5069114;28;20280;-55
2022/11/18 07:10:37;;;;;;;2.23;1.83;;;6.60;99.90;;;;;;5065913;28;20194;-57
2022/11/18 07:13:02;;;;;;;2.13;1.93;;;6.60;99.90;;;;;;5061393;28;20687;-56
2022/11/18 07:15:28;;;;;;;2.47;1.97;;;6.70;99.90;;;;;;5066238;28;20202;-52
2022/11/18 07:17:53;;;;;;;3.53;2.50;;;6.70;99.90;;;;;;5066856;28;20202;-60
2022/11/18 07:20:19;;;;;;;5.27;3.20;;;6.70;99.90;;;;;;5057393;28;20205;-61
2022/11/18 07:22:45;;;;;;;3.03;2.10;;;6.70;99.90;;;;;;5060522;28;20178;-58
2022/11/18 07:25:10;;;;;;;3.23;2.00;;;6.70;99.90;;;;;;5066625;28;20174;-57
2022/11/18 07:27:36;;;;;;;3.57;2.20;;;6.80;99.90;;;;;;5063012;28;20265;-58
2022/11/18 07:30:02;;;;;;;7.00;2.50;;;6.80;99.90;;;;;;5066118;28;20198;-55
2022/11/18 07:32:27;;;;;;;3.70;2.67;;;6.80;99.90;;;;;;5066878;28;20279;-60
2022/11/18 07:34:53;;;;;;;5.70;2.00;;;6.80;99.90;;;;;;5068673;28;20181;-57
2022/11/18 07:37:19;;;;;;;1.80;1.67;;;6.90;99.90;;;;;;5066216;28;20273;-57
2022/11/18 07:39:44;;;;;;;2.30;2.10;;;6.90;99.90;;;;;;5063441;28;20193;-56
2022/11/18 07:42:10;;;;;;;1.30;1.20;;;7.00;99.90;;;;;;5064575;28;20202;-57
2022/11/18 07:44:35;;;;;;;1.37;1.27;;;7.00;99.90;;;;;;5063796;28;20175;-56
2022/11/18 07:47:01;;;;;;;1.40;1.30;;;7.10;99.90;;;;;;5066709;28;20791;-56
2022/11/18 07:49:26;;;;;;;1.53;1.43;;;7.10;99.90;;;;;;5070379;28;20297;-56
2022/11/18 07:51:53;;;;;;;1.70;1.43;;;7.10;99.90;;;;;;5058625;28;20266;-54
2022/11/18 07:54:19;;;;;;;1.23;1.13;;;7.10;99.90;;;;;;5065922;28;20166;-53
2022/11/18 07:56:44;;;;;;;1.73;1.00;;;7.10;99.90;;;;;;5057039;28;20452;-55
2022/11/18 07:59:10;;;;;;;1.30;1.20;;;7.10;99.90;;;;;;5057784;28;20202;-55
2022/11/18 08:01:36;;;;;;;1.37;1.27;;;7.10;99.90;;;;;;5062532;28;20167;-57
2022/11/18 08:04:10;;;;;;;1.90;1.27;;;7.20;99.90;;;;;;5053919;28;20580;-59
2022/11/18 08:06:36;;;;;;;1.83;1.50;;;7.20;99.90;;;;;;5056272;28;20190;-60
2022/11/18 08:09:03;;;;;;;1.60;1.50;;;7.20;99.90;;;;;;5064418;28;20483;-60
2022/11/18 08:11:29;;;;;;;1.43;1.33;;;7.20;99.90;;;;;;5062201;28;20461;-60
2022/11/18 08:13:55;;;;;;;2.20;1.57;;;7.20;99.90;;;;;;5067481;28;20437;-60
2022/11/18 08:16:23;;;;;;;1.50;1.33;;;7.30;99.90;;;;;;5068722;28;20549;-59
2022/11/18 08:18:50;;;;;;;1.90;1.80;;;7.30;99.90;;;;;;5064863;28;20279;-60
2022/11/18 08:21:17;;;;;;;1.57;1.10;;;7.30;99.90;;;;;;5066987;28;21037;-57
2022/11/18 08:23:47;;;;;;;1.60;1.50;;;7.40;99.90;;;;;;5060744;28;20433;-60
2022/11/18 08:26:14;;;;;;;1.37;1.27;;;7.40;99.90;;;;;;5064780;28;20990;-58
2022/11/18 08:28:43;;;;;;;1.20;1.10;;;7.40;99.90;;;;;;5061132;28;20448;-59
2022/11/18 08:31:14;;;;;;;1.10;1.00;;;7.40;99.90;;;;;;5064395;28;20432;-58
2022/11/18 08:33:40;;;;;;;2.20;1.10;;;7.50;99.90;;;;;;5064889;28;20844;-59
2022/11/18 08:36:13;;;;;;;1.33;1.00;;;7.50;99.90;;;;;;5063372;28;20982;-60
2022/11/18 08:38:39;;;;;;;1.27;1.00;;;7.60;99.90;;;;;;5061923;28;20209;-58
2022/11/18 08:41:06;;;;;;;1.10;1.10;;;7.70;99.90;;;;;;5062391;28;21046;-58
2022/11/18 08:43:34;;;;;;;1.17;1.10;;;7.70;99.90;;;;;;5063487;28;20668;-58
2022/11/18 08:45:59;;;;;;;1.30;1.20;;;7.70;99.90;;;;;;5061124;28;20428;-57
2022/11/18 08:48:25;;;;;;;1.40;1.30;;;7.70;99.90;;;;;;5062738;28;21181;-57
2022/11/18 08:50:52;;;;;;;2.20;1.53;;;7.70;99.90;;;;;;5062307;28;21789;-54
2022/11/18 08:53:17;;;;;;;1.50;1.40;;;7.70;99.90;;;;;;5060048;28;20250;-50
2022/11/18 08:55:43;;;;;;;4.00;0.97;;;7.70;99.90;;;;;;5057706;28;20979;-58
2022/11/18 08:58:09;;;;;;;1.10;1.00;;;7.70;99.90;;;;;;5067428;28;20667;-56
2022/11/18 09:00:35;;;;;;;0.83;0.80;;;7.80;99.90;;;;;;5061674;28;20179;-58
2022/11/18 09:03:00;;;;;;;1.10;1.00;;;7.70;99.90;;;;;;5066968;28;20777;-59
2022/11/18 09:05:26;;;;;;;1.20;1.10;;;7.80;99.90;;;;;;5066654;28;20426;-59
2022/11/18 09:07:52;;;;;;;1.00;1.00;;;7.90;99.90;;;;;;5068288;28;20170;-58
2022/11/18 09:10:17;;;;;;;1.10;1.10;;;7.90;99.90;;;;;;5068561;28;20608;-58
2022/11/18 09:12:43;;;;;;;0.90;0.90;;;8.00;99.90;;;;;;5072300;28;20536;-59
2022/11/18 09:15:09;;;;;;;0.80;0.80;;;8.00;99.90;;;;;;5069195;28;20182;-59
2022/11/18 09:17:35;;;;;;;0.70;0.70;;;8.00;99.90;;;;;;5068721;28;20233;-59
2022/11/18 09:20:00;;;;;;;1.20;0.97;;;8.00;99.90;;;;;;5067602;28;20457;-58
2022/11/18 09:22:26;;;;;;;1.43;1.30;;;8.10;99.90;;;;;;5066328;28;20301;-58
2022/11/18 09:24:52;;;;;;;1.20;1.10;;;8.10;99.90;;;;;;5069549;28;20252;-58
2022/11/18 09:27:17;;;;;;;0.80;0.80;;;8.10;99.90;;;;;;5068427;28;20220;-57
2022/11/18 09:29:43;;;;;;;0.87;0.87;;;8.20;99.90;;;;;;5062902;28;20205;-58
2022/11/18 09:32:09;;;;;;;1.33;1.10;;;8.10;99.90;;;;;;5067432;28;20174;-58
2022/11/18 09:34:35;;;;;;;0.90;0.90;;;8.10;99.90;;;;;;5069726;28;20430;-58
2022/11/18 09:37:06;;;;;;;0.77;0.77;;;8.10;99.90;;;;;;5068732;28;20615;-57
2022/11/18 09:39:34;;;;;;;0.87;0.87;;;8.10;99.90;;;;;;5059488;28;20199;-58
2022/11/18 09:42:21;;;;;;;0.80;0.80;;;8.10;99.90;;;;;;5063816;28;20432;-57
2022/11/18 09:44:55;;;;;;;0.90;0.90;;;8.20;99.90;;;;;;5066378;28;20704;-58
2022/11/18 09:47:34;;;;;;;1.40;1.30;;;8.10;99.90;;;;;;5064105;28;21034;-59
2022/11/18 09:50:06;;;;;;;0.80;0.80;;;8.10;99.90;;;;;;5063893;28;20876;-59
2022/11/18 09:53:00;;;;;;;2.20;0.90;;;8.10;99.90;;;;;;5066014;28;20436;-58
2022/11/18 09:55:28;;;;;;;2.00;1.00;;;8.20;99.90;;;;;;5065910;28;20980;-60
2022/11/18 09:57:56;;;;;;;0.90;0.90;;;8.20;99.90;;;;;;5060900;28;20452;-59
2022/11/18 10:00:24;;;;;;;0.90;0.90;;;8.20;99.90;;;;;;5065774;28;20460;-60
2022/11/18 10:03:06;;;;;;;0.90;0.90;;;8.30;99.90;;;;;;5067457;28;20433;-59
2022/11/18 10:05:35;;;;;;;1.20;1.10;;;8.30;99.90;;;;;;5062540;28;20478;-58
2022/11/18 10:08:12;;;;;;;1.00;0.90;;;8.30;99.90;;;;;;5062589;28;20457;-58
2022/11/18 10:10:57;;;;;;;0.70;0.70;;;8.30;99.90;;;;;;5054871;28;20435;-57
2022/11/18 10:13:35;;;;;;;0.80;0.80;;;8.30;99.90;;;;;;5062281;28;20472;-59
2022/11/18 10:16:22;;;;;;;1.00;1.00;;;8.30;99.90;;;;;;5068607;28;20520;-57
2022/11/18 10:19:00;;;;;;;0.90;0.90;;;8.30;99.90;;;;;;5066437;28;20448;-58
2022/11/18 10:21:50;;;;;;;1.10;1.00;;;8.30;99.90;;;;;;5066120;28;20424;-60
2022/11/18 10:24:22;;;;;;;1.17;1.07;;;8.30;99.90;;;;;;5074743;28;20427;-60
2022/11/18 10:26:54;;;;;;;1.63;1.20;;;8.30;99.90;;;;;;5066283;28;20436;-60
2022/11/18 10:29:20;;;;;;;1.70;1.10;;;8.30;99.90;;;;;;5068041;28;20439;-60
2022/11/18 10:32:14;;;;;;;1.10;1.00;;;8.30;99.90;;;;;;5069691;28;20421;-58
2022/11/18 10:34:56;;;;;;;1.50;1.40;;;8.30;99.90;;;;;;5071020;28;20424;-60
2022/11/18 10:37:26;;;;;;;1.90;1.10;;;8.30;99.90;;;;;;5061688;28;21037;-58
2022/11/18 10:39:54;;;;;;;1.20;1.10;;;8.40;99.90;;;;;;5071209;28;20478;-59
2022/11/18 10:42:34;;;;;;;0.90;0.90;;;8.40;99.90;;;;;;5070067;28;20440;-57
2022/11/18 10:45:21;;;;;;;0.90;0.90;;;8.40;99.90;;;;;;5070486;28;20570;-60
2022/11/18 10:48:07;;;;;;;0.97;0.97;;;8.30;99.90;;;;;;5072115;28;20482;-58
2022/11/18 10:50:39;;;;;;;1.17;1.07;;;8.30;99.90;;;;;;5049316;28;20979;-58
2022/11/18 10:53:25;;;;;;;1.07;0.97;;;8.30;99.90;;;;;;5065458;28;20432;-58
2022/11/18 10:55:58;;;;;;;6.97;1.30;;;8.30;99.90;;;;;;5068848;28;20757;-57
2022/11/18 10:58:27;;;;;;;1.33;0.93;;;8.30;99.90;;;;;;5060810;28;20446;-57
2022/11/18 11:01:07;;;;;;;4.97;3.40;;;8.30;99.90;;;;;;5069269;28;20436;-57
2022/11/18 11:03:41;;;;;;;1.80;1.57;;;8.30;99.90;;;;;;5072809;28;20428;-57
2022/11/18 11:06:17;;;;;;;2.20;1.30;;;8.30;99.90;;;;;;5065194;28;20464;-58
2022/11/18 11:08:47;;;;;;;1.27;0.90;;;8.30;99.90;;;;;;5070720;28;20444;-58
2022/11/18 11:11:25;;;;;;;0.90;0.90;;;8.40;99.90;;;;;;5071983;28;20508;-58
2022/11/18 11:14:11;;;;;;;0.80;0.80;;;8.50;99.90;;;;;;5065923;28;20416;-57
2022/11/18 11:17:00;;;;;;;1.00;0.80;;;8.80;99.90;;;;;;5061153;28;20461;-58
2022/11/18 11:19:35;;;;;;;0.80;0.80;;;9.20;99.90;;;;;;5045070;28;22369;-60
2022/11/18 11:22:01;;;;;;;3.07;0.80;;;9.50;99.90;;;;;;5072712;28;20435;-51
2022/11/18 11:24:27;;;;;;;1.67;1.57;;;9.50;99.90;;;;;;5068193;28;20419;-57
2022/11/18 11:27:00;;;;;;;1.33;1.23;;;9.40;99.90;;;;;;5066690;28;21824;-54
2022/11/18 11:29:37;;;;;;;2.57;0.90;;;9.40;99.90;;;;;;5067971;28;20191;-56
2022/11/18 11:32:32;;;;;;;2.60;0.90;;;9.40;99.90;;;;;;5071518;28;20439;-53
2022/11/18 11:35:23;;;;;;;0.93;0.93;;;9.30;99.90;;;;;;5063932;28;20414;-54
2022/11/18 11:37:57;;;;;;;0.77;0.77;;;9.40;99.90;;;;;;5057517;28;20471;-53
2022/11/18 11:40:33;;;;;;;0.80;0.80;;;9.50;99.90;;;;;;5072456;28;21172;-56
2022/11/18 11:43:20;;;;;;;2.13;0.90;;;9.50;99.90;;;;;;5066477;28;20776;-53
2022/11/18 11:46:14;;;;;;;2.10;1.50;;;9.50;99.90;;;;;;5061111;28;20432;-58
2022/11/18 11:49:00;;;;;;;1.00;0.90;;;9.40;99.90;;;;;;5072560;28;20444;-55
2022/11/18 11:51:50;;;;;;;0.93;0.90;;;9.30;99.90;;;;;;5070106;28;20452;-54
2022/11/18 11:54:19;;;;;;;0.93;0.80;;;9.10;99.90;;;;;;5065538;28;20437;-55
2022/11/18 11:56:58;;;;;;;1.43;0.70;;;8.90;99.90;;;;;;5071319;28;20459;-56
2022/11/18 11:59:49;;;;;;;1.10;1.00;;;8.80;99.90;;;;;;5057074;28;20492;-58
2022/11/18 12:02:28;;;;;;;1.37;1.13;;;8.60;99.90;;;;;;5064902;28;20416;-59
2022/11/18 12:05:00;;;;;;;2.10;1.73;;;8.60;99.90;;;;;;5064478;28;20456;-58
2022/11/18 12:07:33;;;;;;;1.30;1.20;;;8.60;99.90;;;;;;5069341;28;20433;-59
2022/11/18 12:10:08;;;;;;;1.50;1.40;;;8.70;99.90;;;;;;5061881;28;20505;-59
2022/11/18 12:13:15;;;;;;;1.20;1.10;;;8.60;99.90;;;;;;5063318;28;20439;-59
2022/11/18 12:15:47;;;;;;;1.10;1.10;;;8.60;99.90;;;;;;5063511;28;20448;-59
2022/11/18 12:18:24;;;;;;;1.83;0.90;;;8.70;99.90;;;;;;5068060;28;20488;-58
2022/11/18 12:20:52;;;;;;;1.00;0.87;;;8.60;99.90;;;;;;5060824;28;20450;-58
2022/11/18 12:23:33;;;;;;;1.10;0.93;;;8.60;99.90;;;;;;5069186;28;20835;-59
2022/11/18 12:26:04;;;;;;;3.30;1.53;;;8.50;99.90;;;;;;5041930;28;20425;-59
2022/11/18 12:28:34;;;;;;;2.03;1.70;;;8.50;99.90;;;;;;5064645;28;20448;-58
2022/11/18 12:31:18;;;;;;;1.00;0.90;;;8.40;99.90;;;;;;5061528;28;20950;-58
2022/11/18 12:33:48;;;;;;;0.97;0.90;;;8.40;99.90;;;;;;5061073;28;20489;-59
2022/11/18 12:36:34;;;;;;;1.30;1.00;;;8.40;99.90;;;;;;5059402;28;20451;-58
2022/11/18 12:39:18;;;;;;;2.50;1.20;;;8.30;99.90;;;;;;5062480;28;20876;-58
2022/11/18 12:44:30;;;;;;;1.03;1.03;;;8.10;99.90;;;;;;5061062;28;20526;-58
2022/11/18 12:47:00;;;;;;;1.63;1.20;;;8.10;99.90;;;;;;5063227;28;20411;-58
2022/11/18 12:49:25;;;;;;;2.13;1.40;;;8.10;99.90;;;;;;5062674;28;20452;-59
2022/11/18 12:51:52;;;;;;;2.07;1.40;;;8.10;99.90;;;;;;5044274;28;20429;-57
2022/11/18 12:54:27;;;;;;;1.10;1.07;;;8.10;99.90;;;;;;5059617;28;20209;-57
2022/11/18 12:56:54;;;;;;;1.80;1.70;;;8.10;99.90;;;;;;5058129;28;20466;-59
2022/11/18 12:59:28;;;;;;;1.13;1.13;;;8.10;99.90;;;;;;5057709;28;20464;-58
2022/11/18 13:02:02;;;;;;;1.37;1.27;;;8.10;99.90;;;;;;5062661;28;20425;-58
2022/11/18 13:04:28;;;;;;;1.40;1.30;;;8.00;99.90;;;;;;5059028;28;20437;-58
2022/11/18 13:06:58;;;;;;;1.47;1.37;;;8.00;99.90;;;;;;5059007;28;20950;-58
2022/11/18 13:09:28;;;;;;;1.80;1.70;;;8.00;99.90;;;;;;5060586;28;20243;-58
2022/11/18 13:12:07;;;;;;;1.40;1.23;;;8.00;99.90;;;;;;5058387;28;20524;-61
2022/11/18 13:17:50;;;;;;;1.73;1.63;;;8.10;99.90;;;;;;5058604;28;20494;-59
2022/11/18 13:20:34;;;;;;;3.53;1.60;;;8.20;99.90;;;;;;5041785;28;20881;-59
2022/11/18 13:26:02;;;;;;;1.30;1.10;;;8.30;99.90;;;;;;5059929;28;20539;-61
2022/11/18 13:28:30;;;;;;;1.10;1.10;;;8.30;99.90;;;;;;5050243;28;20433;-60
2022/11/18 13:31:04;;;;;;;1.40;1.30;;;8.30;99.90;;;;;;5065156;28;20440;-57
2022/11/18 13:33:35;;;;;;;1.27;1.17;;;8.30;99.90;;;;;;5062285;28;20440;-58
2022/11/18 13:36:00;;;;;;;2.80;1.30;;;8.30;99.90;;;;;;5042295;28;20465;-58
2022/11/18 13:38:26;;;;;;;1.33;1.23;;;8.30;99.90;;;;;;5045499;28;20496;-59
2022/11/18 13:41:06;;;;;;;1.30;1.20;;;8.30;99.90;;;;;;5057064;28;20667;-57
2022/11/18 13:43:34;;;;;;;3.03;2.30;;;8.20;99.90;;;;;;5038600;28;20260;-58
2022/11/18 13:46:03;;;;;;;10.77;5.77;;;8.20;99.90;;;;;;5063448;28;20424;-62